Time,TemperatureF,DewpointF,PressureIn,WindDirection,WindDirectionDegrees,WindSpeedMPH,WindSpeedGustMPH,Humidity,HourlyPrecipIn,Conditions,Clouds,dailyrainin,SolarRadiationWatts/m^2,SoftwareType,DateUTC
2013-04-29 00:02:00,56.0,7.0,-100.00,SSW,212,5.0,14.0,14,0.00,,,0.00,0.000000,,2013-04-29 06:02:00,
2013-04-29 00:22:00,55.0,8.0,-100.00,WNW,282,6.0,15.0,15,0.00,,,0.00,0.000000,,2013-04-29 06:22:00,
2013-04-29 00:32:00,55.0,8.0,-100.00,WNW,282,6.0,15.0,15,0.00,,,0.00,0.000000,,2013-04-29 06:32:00,
2013-04-29 00:42:00,55.0,8.0,-100.00,WNW,282,6.0,15.0,15,0.00,,,0.00,0.000000,,2013-04-29 06:42:00,
2013-04-29 00:52:00,55.0,8.0,-100.00,WNW,282,6.0,15.0,15,0.00,,,0.00,0.000000,,2013-04-29 06:52:00,
2013-04-29 01:01:00,55.0,8.0,-100.00,WNW,282,6.0,15.0,15,0.00,,,0.00,0.000000,,2013-04-29 07:01:00,
2013-04-29 01:32:00,55.0,8.0,-100.00,South,170,4.0,19.0,15,0.00,,,0.00,0.000000,,2013-04-29 07:32:00,
2013-04-29 01:42:00,55.0,8.0,-100.00,South,170,4.0,19.0,15,0.00,,,0.00,0.000000,,2013-04-29 07:42:00,
2013-04-29 01:52:00,55.0,8.0,-100.00,South,170,4.0,19.0,15,0.00,,,0.00,0.000000,,2013-04-29 07:52:00,
2013-04-29 02:03:00,55.0,8.0,-100.00,South,170,4.0,19.0,15,0.00,,,0.00,0.000000,,2013-04-29 08:03:00,
2013-04-29 02:22:00,51.0,10.0,-100.00,North,0,3.0,10.0,19,0.00,,,0.00,0.000000,,2013-04-29 08:22:00,
2013-04-29 02:32:00,51.0,10.0,-100.00,North,0,3.0,10.0,19,0.00,,,0.00,0.000000,,2013-04-29 08:32:00,
2013-04-29 02:42:00,51.0,10.0,-100.00,North,0,3.0,10.0,19,0.00,,,0.00,0.000000,,2013-04-29 08:42:00,
2013-04-29 02:52:00,51.0,10.0,-100.00,North,0,3.0,10.0,19,0.00,,,0.00,0.000000,,2013-04-29 08:52:00,
2013-04-29 03:01:00,51.0,10.0,-100.00,North,0,3.0,10.0,19,0.00,,,0.00,0.000000,,2013-04-29 09:01:00,
2013-04-29 03:22:00,49.0,13.0,-100.00,North,0,3.0,9.0,23,0.00,,,0.00,0.000000,,2013-04-29 09:22:00,
2013-04-29 03:33:00,49.0,13.0,-100.00,North,0,3.0,9.0,23,0.00,,,0.00,0.000000,,2013-04-29 09:33:00,
2013-04-29 03:42:00,49.0,13.0,-100.00,North,0,3.0,9.0,23,0.00,,,0.00,0.000000,,2013-04-29 09:42:00,
2013-04-29 03:53:00,49.0,13.0,-100.00,North,0,3.0,9.0,23,0.00,,,0.00,0.000000,,2013-04-29 09:53:00,
2013-04-29 04:02:00,49.0,13.0,-100.00,North,0,3.0,9.0,23,0.00,,,0.00,0.000000,,2013-04-29 10:02:00,
2013-04-29 04:32:00,49.0,11.0,-100.00,North,0,3.0,8.0,21,0.00,,,0.00,0.000000,,2013-04-29 10:32:00,
2013-04-29 04:42:00,49.0,11.0,-100.00,North,0,3.0,8.0,21,0.00,,,0.00,0.000000,,2013-04-29 10:42:00,
2013-04-29 04:52:00,49.0,11.0,-100.00,North,0,3.0,8.0,21,0.00,,,0.00,0.000000,,2013-04-29 10:52:00,
2013-04-29 05:02:00,49.0,11.0,-100.00,North,0,3.0,8.0,21,0.00,,,0.00,0.000000,,2013-04-29 11:02:00,
2013-04-29 05:22:00,44.0,15.0,-100.00,North,0,2.0,7.0,30,0.00,,,0.00,0.000000,,2013-04-29 11:22:00,
2013-04-29 05:32:00,44.0,15.0,-100.00,North,0,2.0,7.0,30,0.00,,,0.00,0.000000,,2013-04-29 11:32:00,
2013-04-29 05:42:00,44.0,15.0,-100.00,North,0,2.0,7.0,30,0.00,,,0.00,0.000000,,2013-04-29 11:42:00,
2013-04-29 05:52:00,44.0,15.0,-100.00,North,0,2.0,7.0,30,0.00,,,0.00,0.000000,,2013-04-29 11:52:00,
2013-04-29 06:01:00,44.0,15.0,-100.00,North,0,2.0,7.0,30,0.00,,,0.00,0.000000,,2013-04-29 12:01:00,
2013-04-29 06:22:00,42.0,12.0,-100.00,North,0,3.0,7.0,29,0.00,,,0.00,0.000000,,2013-04-29 12:22:00,
2013-04-29 06:32:00,42.0,12.0,-100.00,North,0,3.0,7.0,29,0.00,,,0.00,0.000000,,2013-04-29 12:32:00,
2013-04-29 06:42:00,42.0,12.0,-100.00,North,0,3.0,7.0,29,0.00,,,0.00,0.000000,,2013-04-29 12:42:00,
2013-04-29 06:52:00,42.0,12.0,-100.00,North,0,3.0,7.0,29,0.00,,,0.00,0.000000,,2013-04-29 12:52:00,
2013-04-29 07:01:00,42.0,12.0,-100.00,North,0,3.0,7.0,29,0.00,,,0.00,0.000000,,2013-04-29 13:01:00,
2013-04-29 07:21:00,43.0,16.0,-100.00,North,0,3.0,5.0,33,0.00,,,0.00,24.000000,,2013-04-29 13:21:00,
2013-04-29 07:32:00,43.0,16.0,-100.00,North,0,3.0,5.0,33,0.00,,,0.00,24.000000,,2013-04-29 13:32:00,
2013-04-29 07:42:00,43.0,16.0,-100.00,North,0,3.0,5.0,33,0.00,,,0.00,24.000000,,2013-04-29 13:42:00,
2013-04-29 07:52:00,43.0,16.0,-100.00,North,0,3.0,5.0,33,0.00,,,0.00,24.000000,,2013-04-29 13:52:00,
2013-04-29 08:02:00,43.0,16.0,-100.00,North,0,3.0,5.0,33,0.00,,,0.00,24.000000,,2013-04-29 14:02:00,
2013-04-29 08:22:00,58.0,15.0,-100.00,ESE,119,2.0,4.0,18,0.00,,,0.00,262.000000,,2013-04-29 14:22:00,
2013-04-29 08:32:00,58.0,15.0,-100.00,ESE,119,2.0,4.0,18,0.00,,,0.00,262.000000,,2013-04-29 14:32:00,
2013-04-29 08:42:00,58.0,15.0,-100.00,ESE,119,2.0,4.0,18,0.00,,,0.00,262.000000,,2013-04-29 14:42:00,
2013-04-29 08:52:00,58.0,15.0,-100.00,ESE,119,2.0,4.0,18,0.00,,,0.00,262.000000,,2013-04-29 14:52:00,
2013-04-29 09:01:00,58.0,15.0,-100.00,ESE,119,2.0,4.0,18,0.00,,,0.00,262.000000,,2013-04-29 15:01:00,
2013-04-29 09:33:00,64.0,14.0,-100.00,SSW,207,4.0,9.0,14,0.00,,,0.00,565.000000,,2013-04-29 15:33:00,
2013-04-29 09:43:00,64.0,14.0,-100.00,SSW,207,4.0,9.0,14,0.00,,,0.00,565.000000,,2013-04-29 15:43:00,
2013-04-29 09:53:00,64.0,14.0,-100.00,SSW,207,4.0,9.0,14,0.00,,,0.00,565.000000,,2013-04-29 15:53:00,
2013-04-29 10:02:00,64.0,14.0,-100.00,SSW,207,4.0,9.0,14,0.00,,,0.00,565.000000,,2013-04-29 16:02:00,
2013-04-29 10:33:00,66.0,10.0,-100.00,SW,218,6.0,12.0,11,0.00,,,0.00,822.000000,,2013-04-29 16:33:00,
2013-04-29 10:42:00,66.0,10.0,-100.00,SW,218,6.0,12.0,11,0.00,,,0.00,822.000000,,2013-04-29 16:42:00,
2013-04-29 10:52:00,66.0,10.0,-100.00,SW,218,6.0,12.0,11,0.00,,,0.00,822.000000,,2013-04-29 16:52:00,
2013-04-29 11:02:00,66.0,10.0,-100.00,SW,218,6.0,12.0,11,0.00,,,0.00,822.000000,,2013-04-29 17:02:00,
2013-04-29 11:32:00,69.0,12.0,-100.00,SW,222,7.0,14.0,11,0.00,,,0.00,1016.000000,,2013-04-29 17:32:00,
2013-04-29 11:42:00,69.0,12.0,-100.00,SW,222,7.0,14.0,11,0.00,,,0.00,1016.000000,,2013-04-29 17:42:00,
2013-04-29 11:52:00,69.0,12.0,-100.00,SW,222,7.0,14.0,11,0.00,,,0.00,1016.000000,,2013-04-29 17:52:00,
2013-04-29 12:01:00,69.0,12.0,-100.00,SW,222,7.0,14.0,11,0.00,,,0.00,1016.000000,,2013-04-29 18:01:00,
2013-04-29 12:22:00,69.0,12.0,-100.00,SSW,207,9.0,17.0,11,0.00,,,0.00,1146.000000,,2013-04-29 18:22:00,
2013-04-29 12:32:00,69.0,12.0,-100.00,SSW,207,9.0,17.0,11,0.00,,,0.00,1146.000000,,2013-04-29 18:32:00,
2013-04-29 12:42:00,69.0,12.0,-100.00,SSW,207,9.0,17.0,11,0.00,,,0.00,1146.000000,,2013-04-29 18:42:00,
2013-04-29 12:52:00,69.0,12.0,-100.00,SSW,207,9.0,17.0,11,0.00,,,0.00,1146.000000,,2013-04-29 18:52:00,
2013-04-29 13:01:00,69.0,12.0,-100.00,SSW,207,9.0,17.0,11,0.00,,,0.00,1146.000000,,2013-04-29 19:01:00,
2013-04-29 13:22:00,69.0,12.0,-100.00,SSW,213,9.0,19.0,11,0.00,,,0.00,1206.000000,,2013-04-29 19:22:00,
2013-04-29 13:32:00,69.0,12.0,-100.00,SSW,213,9.0,19.0,11,0.00,,,0.00,1206.000000,,2013-04-29 19:32:00,
2013-04-29 13:42:00,69.0,12.0,-100.00,SSW,213,9.0,19.0,11,0.00,,,0.00,1206.000000,,2013-04-29 19:42:00,
2013-04-29 13:52:00,69.0,12.0,-100.00,SSW,213,9.0,19.0,11,0.00,,,0.00,1206.000000,,2013-04-29 19:52:00,
2013-04-29 14:02:00,69.0,12.0,-100.00,SSW,213,9.0,19.0,11,0.00,,,0.00,1206.000000,,2013-04-29 20:02:00,
2013-04-29 14:32:00,69.0,14.0,-100.00,SSW,204,10.0,18.0,12,0.00,,,0.00,1169.000000,,2013-04-29 20:32:00,
2013-04-29 14:42:00,69.0,14.0,-100.00,SSW,204,10.0,18.0,12,0.00,,,0.00,1169.000000,,2013-04-29 20:42:00,
2013-04-29 14:52:00,69.0,14.0,-100.00,SSW,204,10.0,18.0,12,0.00,,,0.00,1169.000000,,2013-04-29 20:52:00,
2013-04-29 15:01:00,69.0,14.0,-100.00,SSW,204,10.0,18.0,12,0.00,,,0.00,1169.000000,,2013-04-29 21:01:00,
2013-04-29 15:22:00,70.0,13.0,-100.00,SW,214,8.0,24.0,11,0.00,,,0.00,1131.000000,,2013-04-29 21:22:00,
2013-04-29 15:33:00,70.0,13.0,-100.00,SW,214,8.0,24.0,11,0.00,,,0.00,1131.000000,,2013-04-29 21:33:00,
2013-04-29 15:43:00,70.0,13.0,-100.00,SW,214,8.0,24.0,11,0.00,,,0.00,1131.000000,,2013-04-29 21:43:00,
2013-04-29 15:53:00,70.0,13.0,-100.00,SW,214,8.0,24.0,11,0.00,,,0.00,1131.000000,,2013-04-29 21:53:00,
2013-04-29 16:02:00,70.0,13.0,-100.00,SW,214,8.0,24.0,11,0.00,,,0.00,1131.000000,,2013-04-29 22:02:00,
2013-04-29 16:32:00,70.0,11.0,-100.00,NW,311,6.0,21.0,10,0.00,,,0.00,994.000000,,2013-04-29 22:32:00,
2013-04-29 16:42:00,70.0,11.0,-100.00,NW,311,6.0,21.0,10,0.00,,,0.00,994.000000,,2013-04-29 22:42:00,
2013-04-29 16:53:00,70.0,11.0,-100.00,NW,311,6.0,21.0,10,0.00,,,0.00,994.000000,,2013-04-29 22:53:00,
2013-04-29 17:02:00,70.0,11.0,-100.00,NW,311,6.0,21.0,10,0.00,,,0.00,994.000000,,2013-04-29 23:02:00,
2013-04-29 17:32:00,70.0,11.0,-100.00,SSW,213,8.0,18.0,10,0.00,,,0.00,686.000000,,2013-04-29 23:32:00,
2013-04-29 17:42:00,70.0,11.0,-100.00,SSW,213,8.0,18.0,10,0.00,,,0.00,686.000000,,2013-04-29 23:42:00,
2013-04-29 17:52:00,70.0,11.0,-100.00,SSW,213,8.0,18.0,10,0.00,,,0.00,686.000000,,2013-04-29 23:52:00,
2013-04-29 18:01:00,70.0,11.0,-100.00,SSW,213,8.0,18.0,10,0.00,,,0.00,686.000000,,2013-04-30 00:01:00,
2013-04-29 18:32:00,67.0,11.0,-100.00,SW,226,7.0,19.0,11,0.00,,,0.00,433.000000,,2013-04-30 00:32:00,
2013-04-29 18:42:00,67.0,11.0,-100.00,SW,226,7.0,19.0,11,0.00,,,0.00,433.000000,,2013-04-30 00:42:00,
2013-04-29 18:52:00,67.0,11.0,-100.00,SW,226,7.0,19.0,11,0.00,,,0.00,433.000000,,2013-04-30 00:52:00,
2013-04-29 19:02:00,67.0,11.0,-100.00,SW,226,7.0,19.0,11,0.00,,,0.00,433.000000,,2013-04-30 01:02:00,
2013-04-29 20:21:00,61.0,8.0,-100.00,NNE,26,4.0,22.0,12,-99.99,,,0.00,11.000000,,2013-04-30 02:21:00,
2013-04-29 20:32:00,61.0,8.0,-100.00,NNE,26,4.0,22.0,12,-99.99,,,0.00,11.000000,,2013-04-30 02:32:00,
2013-04-29 20:42:00,61.0,8.0,-100.00,NNE,26,4.0,22.0,12,-99.99,,,0.00,11.000000,,2013-04-30 02:42:00,
2013-04-29 20:51:00,61.0,8.0,-100.00,NNE,26,4.0,22.0,12,-99.99,,,0.00,11.000000,,2013-04-30 02:51:00,
2013-04-29 21:01:00,61.0,8.0,-100.00,NNE,26,4.0,22.0,12,-99.99,,,0.00,11.000000,,2013-04-30 03:01:00,